createdAt,value
2023-01-19T00:00:28.585Z,13.50
2023-01-19T00:03:31.274Z,13.75
2023-01-19T00:06:33.538Z,14.00
2023-01-19T00:09:38.266Z,13.65
2023-01-19T00:12:40.686Z,13.50
2023-01-19T00:15:43.698Z,14.73
2023-01-19T00:18:46.421Z,14.13
2023-01-19T00:21:48.969Z,14.20
2023-01-19T00:24:51.145Z,13.65
2023-01-19T00:27:54.292Z,14.63
2023-01-19T00:30:56.501Z,14.48
2023-01-19T00:33:58.973Z,13.82
2023-01-19T00:37:03.066Z,13.95
2023-01-19T00:40:06.214Z,13.60
2023-01-19T00:43:08.474Z,13.38
2023-01-19T00:46:11.097Z,12.73
2023-01-19T00:49:13.506Z,12.77
2023-01-19T00:52:16.213Z,11.98
2023-01-19T00:55:18.599Z,12.37
2023-01-19T00:58:23.135Z,13.50
2023-01-19T01:01:45.361Z,11.90
2023-01-19T01:04:48.058Z,11.70
2023-01-19T01:07:50.823Z,11.55
2023-01-19T01:10:54.474Z,11.48
2023-01-19T01:13:56.700Z,11.30
2023-01-19T01:17:00.643Z,10.27
2023-01-19T01:20:04.874Z,9.40
2023-01-19T01:23:07.458Z,8.30
2023-01-19T01:26:09.979Z,8.85
2023-01-19T01:29:12.779Z,8.05
2023-01-19T01:32:15.829Z,7.53
2023-01-19T01:35:18.645Z,6.55
2023-01-19T01:38:20.784Z,6.50
2023-01-19T01:41:25.459Z,5.80
2023-01-19T01:44:49.665Z,5.37
2023-01-19T01:47:55.414Z,4.62
2023-01-19T01:51:20.749Z,4.30
2023-01-19T01:54:33.517Z,4.40
2023-01-19T01:57:38.919Z,3.80
2023-01-19T02:01:00.128Z,3.50
2023-01-19T02:07:23.639Z,3.37
2023-01-19T02:10:45.091Z,2.95
2023-01-19T02:13:47.753Z,2.87
2023-01-19T02:16:50.438Z,3.10
2023-01-19T02:19:53.084Z,2.60
2023-01-19T02:23:01.667Z,2.60
2023-01-19T02:26:05.709Z,2.40
2023-01-19T02:29:13.111Z,2.17
2023-01-19T02:32:15.443Z,1.70
2023-01-19T02:35:18.985Z,1.60
2023-01-19T02:38:21.661Z,1.60
2023-01-19T02:41:28.784Z,1.62
2023-01-19T02:44:32.890Z,1.58
2023-01-19T02:47:53.459Z,1.08
2023-01-19T02:51:10.835Z,1.00
2023-01-19T02:54:35.980Z,1.20
2023-01-19T02:57:52.762Z,1.10
2023-01-19T03:01:19.688Z,1.20
2023-01-19T03:04:37.269Z,1.17
2023-01-19T03:07:57.678Z,0.80
2023-01-19T03:11:12.827Z,1.10
2023-01-19T03:14:21.771Z,1.60
2023-01-19T03:17:26.141Z,1.20
2023-01-19T03:20:29.159Z,1.20
2023-01-19T03:23:33.970Z,0.85
2023-01-19T03:26:43.947Z,1.00
2023-01-19T03:29:52.112Z,0.90
2023-01-19T03:33:00.283Z,0.75
2023-01-19T03:36:13.706Z,0.80
2023-01-19T03:39:21.726Z,0.70
2023-01-19T03:42:25.419Z,0.68
2023-01-19T03:45:28.091Z,0.70
2023-01-19T03:48:31.325Z,0.55
2023-01-19T03:51:38.966Z,0.60
2023-01-19T03:54:41.359Z,0.65
2023-01-19T03:57:43.875Z,0.45
2023-01-19T04:00:46.010Z,0.60
2023-01-19T04:03:50.558Z,0.60
2023-01-19T04:06:52.755Z,0.60
2023-01-19T04:09:55.212Z,0.70
2023-01-19T04:13:02.027Z,0.60
2023-01-19T04:16:05.587Z,0.57
2023-01-19T04:19:07.892Z,0.60
2023-01-19T04:22:10.539Z,0.70
2023-01-19T04:25:12.771Z,0.80
2023-01-19T04:28:15.643Z,0.98
2023-01-19T04:31:19.365Z,1.08
2023-01-19T04:34:21.854Z,0.98
2023-01-19T04:37:24.039Z,1.05
2023-01-19T04:40:26.478Z,1.37
2023-01-19T04:43:29.366Z,1.40
2023-01-19T04:46:31.893Z,0.90
2023-01-19T04:49:34.088Z,0.85
2023-01-19T04:52:36.804Z,0.60
2023-01-19T04:55:39.297Z,0.62
2023-01-19T04:58:41.942Z,0.93
2023-01-19T05:01:44.227Z,0.90
2023-01-19T05:04:46.732Z,0.82
2023-01-19T05:07:49.053Z,1.08
2023-01-19T05:10:51.735Z,0.70
2023-01-19T05:13:54.031Z,0.50
2023-01-19T05:16:56.583Z,0.62
2023-01-19T05:19:58.808Z,0.50
2023-01-19T05:23:01.718Z,0.50
2023-01-19T05:26:04.455Z,0.40
2023-01-19T05:29:08.164Z,0.50
2023-01-19T05:32:10.654Z,0.30
2023-01-19T05:35:20.203Z,0.50
2023-01-19T05:38:35.411Z,0.30
2023-01-19T05:44:40.815Z,0.95
2023-01-19T05:47:43.504Z,0.75
2023-01-19T05:50:45.751Z,0.70
2023-01-19T05:53:48.175Z,0.50
2023-01-19T05:56:50.519Z,0.60
2023-01-19T05:59:52.998Z,0.68
2023-01-19T06:02:55.717Z,0.60
2023-01-19T06:05:58.807Z,0.60
2023-01-19T06:09:01.046Z,0.77
2023-01-19T06:12:03.887Z,0.70
2023-01-19T06:15:06.925Z,0.93
2023-01-19T06:18:09.603Z,0.88
2023-01-19T06:21:14.283Z,1.05
2023-01-19T06:24:16.936Z,0.80
2023-01-19T06:27:19.241Z,0.80
2023-01-19T06:30:21.986Z,1.08
2023-01-19T06:33:25.139Z,0.90
2023-01-19T06:36:27.836Z,0.68
2023-01-19T06:39:30.221Z,0.75
2023-01-19T06:42:33.560Z,1.27
2023-01-19T06:45:35.788Z,1.12
2023-01-19T06:48:38.427Z,1.25
2023-01-19T06:51:40.597Z,1.33
2023-01-19T06:54:45.439Z,2.05
2023-01-19T06:57:47.838Z,2.05
2023-01-19T07:00:51.668Z,2.15
2023-01-19T07:03:55.141Z,2.50
2023-01-19T07:06:58.036Z,2.95
2023-01-19T07:10:00.422Z,2.70
2023-01-19T07:13:03.392Z,3.00
2023-01-19T07:16:08.400Z,3.30
2023-01-19T07:19:11.152Z,3.70
2023-01-19T07:22:13.898Z,3.75
2023-01-19T07:25:16.630Z,3.30
2023-01-19T07:28:19.108Z,3.80
2023-01-19T07:31:26.244Z,3.72
2023-01-19T07:34:29.858Z,3.87
2023-01-19T07:37:32.480Z,4.10
2023-01-19T07:40:35.075Z,3.70
2023-01-19T07:43:37.767Z,4.10
2023-01-19T07:46:40.472Z,4.05
2023-01-19T07:49:43.001Z,3.83
2023-01-19T07:52:45.665Z,3.67
2023-01-19T07:55:54.510Z,3.53
2023-01-19T07:58:56.802Z,3.67
2023-01-19T08:01:59.833Z,3.70
2023-01-19T08:05:02.889Z,3.65
2023-01-19T08:08:05.582Z,4.30
2023-01-19T08:11:08.472Z,4.07
2023-01-19T08:14:10.656Z,4.68
2023-01-19T08:17:14.049Z,4.53
2023-01-19T08:20:16.559Z,4.32
2023-01-19T08:23:19.728Z,4.07
2023-01-19T08:26:27.992Z,4.32
2023-01-19T08:29:32.086Z,4.53
2023-01-19T08:32:34.277Z,4.28
2023-01-19T08:35:41.001Z,4.00
2023-01-19T08:38:45.383Z,4.25
2023-01-19T08:41:48.291Z,4.20
2023-01-19T08:44:58.058Z,4.62
2023-01-19T08:48:02.147Z,4.45
2023-01-19T08:51:04.467Z,5.05
2023-01-19T08:54:07.044Z,5.00
2023-01-19T08:57:09.272Z,5.62
2023-01-19T09:00:12.743Z,5.55
2023-01-19T09:03:15.096Z,5.78
2023-01-19T09:06:19.243Z,6.07
2023-01-19T09:09:21.628Z,6.50
2023-01-19T09:12:24.191Z,7.30
2023-01-19T09:15:26.437Z,7.00
2023-01-19T09:18:29.921Z,6.72
2023-01-19T09:21:32.138Z,6.93
2023-01-19T09:24:35.011Z,6.78
2023-01-19T09:27:37.292Z,8.13
2023-01-19T09:30:41.701Z,7.80
2023-01-19T09:33:43.958Z,7.87
2023-01-19T09:36:47.197Z,7.47
2023-01-19T09:39:49.363Z,7.50
2023-01-19T09:43:31.999Z,7.47
2023-01-19T09:46:42.191Z,7.78
2023-01-19T09:49:51.131Z,8.15
2023-01-19T09:53:03.114Z,8.73
2023-01-19T09:56:11.098Z,7.57
2023-01-19T09:59:25.423Z,7.32
2023-01-19T10:02:44.920Z,6.55
2023-01-19T10:06:01.284Z,7.25
2023-01-19T10:09:22.140Z,6.43
2023-01-19T10:12:35.673Z,6.85
2023-01-19T10:15:55.928Z,7.30
2023-01-19T10:19:12.417Z,6.68
2023-01-19T10:22:27.576Z,7.93
2023-01-19T10:25:30.511Z,6.87
2023-01-19T10:28:33.437Z,6.53
2023-01-19T10:31:39.601Z,6.82
2023-01-19T10:34:41.847Z,7.55
2023-01-19T10:37:44.847Z,6.97
2023-01-19T10:40:57.017Z,6.82
2023-01-19T10:44:02.305Z,9.02
2023-01-19T10:47:14.359Z,8.85
2023-01-19T10:50:37.039Z,10.00
2023-01-19T10:53:42.692Z,9.70
2023-01-19T10:56:52.430Z,10.13
2023-01-19T10:59:54.840Z,9.48
2023-01-19T11:02:57.573Z,10.15
2023-01-19T11:06:21.418Z,10.07
2023-01-19T11:09:23.928Z,9.82
2023-01-19T11:12:26.128Z,9.48
2023-01-19T11:15:35.905Z,8.85
2023-01-19T11:18:39.864Z,6.87
2023-01-19T11:21:42.400Z,6.43
2023-01-19T11:24:44.634Z,6.15
2023-01-19T11:27:51.770Z,6.47
2023-01-19T11:31:02.287Z,6.32
2023-01-19T11:34:21.917Z,7.30
2023-01-19T11:37:30.895Z,7.40
2023-01-19T11:40:35.727Z,6.85
2023-01-19T11:43:48.684Z,7.70
2023-01-19T11:47:00.987Z,7.05
2023-01-19T11:50:23.521Z,7.82
2023-01-19T11:53:33.165Z,7.75
2023-01-19T11:56:35.342Z,8.40
2023-01-19T11:59:38.283Z,8.15
2023-01-19T12:02:46.152Z,9.13
2023-01-19T12:05:55.336Z,8.80
2023-01-19T12:09:00.369Z,9.13
2023-01-19T12:12:10.481Z,10.18
2023-01-19T12:15:35.022Z,10.60
2023-01-19T12:19:02.632Z,10.30
2023-01-19T12:22:06.116Z,10.45
2023-01-19T12:25:34.998Z,10.10
2023-01-19T12:28:41.407Z,11.38
2023-01-19T12:31:44.287Z,10.82
2023-01-19T12:34:55.812Z,12.30
2023-01-19T12:38:00.407Z,10.82
2023-01-19T12:41:17.751Z,10.88
2023-01-19T12:44:23.987Z,11.30
2023-01-19T12:47:27.160Z,10.75
2023-01-19T12:50:37.220Z,11.63
2023-01-19T12:53:39.790Z,11.60
2023-01-19T12:56:44.975Z,11.52
2023-01-19T12:59:47.489Z,11.60
2023-01-19T13:02:51.865Z,11.68
2023-01-19T13:05:56.767Z,11.77
2023-01-19T13:09:00.591Z,12.00
2023-01-19T13:12:32.327Z,11.48
2023-01-19T13:15:36.376Z,12.55
2023-01-19T13:18:41.408Z,11.40
2023-01-19T13:21:48.538Z,12.93
2023-01-19T13:25:13.849Z,12.82
2023-01-19T13:28:19.234Z,13.60
2023-01-19T13:31:22.780Z,14.40
2023-01-19T13:34:28.022Z,13.65
2023-01-19T13:37:40.441Z,12.73
2023-01-19T13:40:44.327Z,12.82
2023-01-19T13:43:48.292Z,14.73
2023-01-19T13:46:52.492Z,14.87
2023-01-19T13:49:58.979Z,14.87
2023-01-19T13:53:02.777Z,13.60
2023-01-19T13:56:06.343Z,14.00
2023-01-19T13:59:12.970Z,13.98
2023-01-19T14:02:17.895Z,13.82
2023-01-19T14:05:34.082Z,13.35
2023-01-19T14:08:36.580Z,13.27
2023-01-19T14:11:39.276Z,12.63
2023-01-19T14:14:43.402Z,12.82
2023-01-19T14:18:21.004Z,12.75
2023-01-19T14:21:23.234Z,12.07
2023-01-19T14:24:29.745Z,12.27
2023-01-19T14:27:32.113Z,11.65
2023-01-19T14:30:36.751Z,11.75
2023-01-19T14:33:46.022Z,11.80
2023-01-19T14:36:51.579Z,12.18
2023-01-19T14:39:57.065Z,11.85
2023-01-19T14:43:06.258Z,11.98
2023-01-19T14:46:14.739Z,12.77
2023-01-19T14:49:30.421Z,13.07
2023-01-19T14:52:38.178Z,11.48
2023-01-19T14:55:46.457Z,12.25
2023-01-19T14:58:48.757Z,12.60
2023-01-19T15:01:51.454Z,12.95
2023-01-19T15:04:55.378Z,13.13
2023-01-19T15:08:00.571Z,14.02
2023-01-19T15:11:29.304Z,14.25
2023-01-19T15:14:32.078Z,15.50
2023-01-19T15:17:35.183Z,16.00
2023-01-19T15:20:37.682Z,15.45
2023-01-19T15:23:40.260Z,15.40
2023-01-19T15:26:43.251Z,16.27
2023-01-19T15:29:46.090Z,15.90
2023-01-19T15:32:48.861Z,16.25
2023-01-19T15:35:51.992Z,17.10
2023-01-19T15:38:55.803Z,16.00
2023-01-19T15:41:58.324Z,15.65
2023-01-19T15:45:00.825Z,16.55
2023-01-19T15:48:11.095Z,16.17
2023-01-19T15:51:15.667Z,16.12
2023-01-19T15:54:18.619Z,15.57
2023-01-19T15:57:21.077Z,16.92
2023-01-19T16:00:23.465Z,17.73
2023-01-19T16:03:26.366Z,17.35
2023-01-19T16:06:29.751Z,17.35
2023-01-19T16:09:32.191Z,17.15
2023-01-19T16:12:34.416Z,18.15
2023-01-19T16:15:38.270Z,17.42
2023-01-19T16:18:40.464Z,18.00
2023-01-19T16:21:43.980Z,17.75
2023-01-19T16:24:46.095Z,17.45
2023-01-19T16:27:48.489Z,19.30
2023-01-19T16:30:51.712Z,17.92
2023-01-19T16:33:54.340Z,18.23
2023-01-19T16:36:56.560Z,19.23
2023-01-19T16:39:59.052Z,18.90
2023-01-19T16:43:01.254Z,18.92
2023-01-19T16:46:04.409Z,17.83
2023-01-19T16:49:13.496Z,18.85
2023-01-19T16:52:16.088Z,18.67
2023-01-19T16:55:18.357Z,18.90
2023-01-19T16:58:20.857Z,18.58
2023-01-19T17:01:24.700Z,19.37
2023-01-19T17:04:27.356Z,17.80
2023-01-19T17:07:29.545Z,18.52
2023-01-19T17:10:36.347Z,18.10
2023-01-19T17:13:39.415Z,17.65
2023-01-19T17:16:43.343Z,16.50
2023-01-19T17:19:45.619Z,16.92
2023-01-19T17:22:48.170Z,16.58
2023-01-19T17:25:54.382Z,16.85
2023-01-19T17:29:07.981Z,15.82
2023-01-19T17:32:10.138Z,16.02
2023-01-19T17:35:12.578Z,15.70
2023-01-19T17:38:14.951Z,14.90
2023-01-19T17:41:23.764Z,15.85
2023-01-19T17:44:25.969Z,15.13
2023-01-19T17:47:28.372Z,15.68
2023-01-19T17:50:32.521Z,15.88
2023-01-19T17:53:39.628Z,15.85
2023-01-19T17:56:41.835Z,15.70
2023-01-19T17:59:44.410Z,16.02
2023-01-19T18:02:49.852Z,15.52
2023-01-19T18:05:55.635Z,15.30
2023-01-19T18:08:59.374Z,13.93
2023-01-19T18:12:01.894Z,14.02
2023-01-19T18:15:06.202Z,14.87
2023-01-19T18:18:08.626Z,15.23
2023-01-19T18:21:13.821Z,14.35
2023-01-19T18:24:16.424Z,14.75
2023-01-19T18:27:18.812Z,13.55
2023-01-19T18:30:22.394Z,13.15
2023-01-19T18:33:25.429Z,13.05
2023-01-19T18:36:27.962Z,13.45
2023-01-19T18:39:31.087Z,11.30
2023-01-19T18:42:34.239Z,12.68
2023-01-19T18:45:38.162Z,12.45
2023-01-19T18:48:40.609Z,13.20
2023-01-19T18:51:42.766Z,13.30
2023-01-19T18:54:45.197Z,13.38
2023-01-19T18:57:47.435Z,12.75
2023-01-19T19:00:50.432Z,14.02
2023-01-19T19:03:54.100Z,13.82
2023-01-19T19:06:56.796Z,13.68
2023-01-19T19:09:58.994Z,13.10
2023-01-19T19:13:01.916Z,13.02
2023-01-19T19:16:08.653Z,13.62
2023-01-19T19:19:15.156Z,14.40
2023-01-19T19:22:17.282Z,14.15
2023-01-19T19:25:19.767Z,13.00
2023-01-19T19:28:21.942Z,13.02
2023-01-19T19:31:26.843Z,13.60
2023-01-19T19:34:29.184Z,14.20
2023-01-19T19:37:32.004Z,13.60
2023-01-19T19:40:34.130Z,14.25
2023-01-19T19:43:37.465Z,14.38
2023-01-19T19:46:41.194Z,14.48
2023-01-19T19:49:43.681Z,14.52
2023-01-19T19:52:45.946Z,14.38
2023-01-19T19:55:59.484Z,14.25
2023-01-19T19:59:01.676Z,14.38
2023-01-19T20:02:06.068Z,13.68
2023-01-19T20:05:08.944Z,14.80
2023-01-19T20:08:11.345Z,14.07
2023-01-19T20:11:17.294Z,13.20
2023-01-19T20:14:20.167Z,12.13
2023-01-19T20:17:23.211Z,12.68
2023-01-19T20:20:25.622Z,12.88
2023-01-19T20:23:28.053Z,13.23
2023-01-19T20:26:33.649Z,13.00
2023-01-19T20:29:36.227Z,14.18
2023-01-19T20:32:41.531Z,13.75
2023-01-19T20:35:44.134Z,13.13
2023-01-19T20:38:46.305Z,12.60
2023-01-19T20:41:51.215Z,13.13
2023-01-19T20:44:55.599Z,13.82
2023-01-19T20:47:58.106Z,11.57
2023-01-19T20:51:09.572Z,12.68
2023-01-19T20:54:13.781Z,11.12
2023-01-19T20:57:15.991Z,11.55
2023-01-19T21:00:18.814Z,11.27
2023-01-19T21:03:21.026Z,11.25
2023-01-19T21:06:23.695Z,11.12
2023-01-19T21:09:25.889Z,11.50
2023-01-19T21:12:28.432Z,11.05
2023-01-19T21:15:30.560Z,10.70
2023-01-19T21:18:33.187Z,10.93
2023-01-19T21:21:35.375Z,11.73
2023-01-19T21:24:37.876Z,12.68
2023-01-19T21:27:40.165Z,12.13
2023-01-19T21:30:42.697Z,13.00
2023-01-19T21:33:45.135Z,13.35
2023-01-19T21:36:47.581Z,13.43
2023-01-19T21:39:49.700Z,13.27
2023-01-19T21:42:52.855Z,12.60
2023-01-19T21:45:55.131Z,13.55
2023-01-19T21:49:03.126Z,12.68
2023-01-19T21:52:05.504Z,12.75
2023-01-19T21:55:08.493Z,12.20
2023-01-19T21:58:10.767Z,10.88
2023-01-19T22:01:14.091Z,12.55
2023-01-19T22:04:16.633Z,13.00
2023-01-19T22:07:18.831Z,12.82
2023-01-19T22:10:21.579Z,13.20
2023-01-19T22:13:23.821Z,13.60
2023-01-19T22:16:28.222Z,12.20
2023-01-19T22:19:30.519Z,12.15
2023-01-19T22:22:33.323Z,12.73
2023-01-19T22:25:35.522Z,12.50
2023-01-19T22:28:38.215Z,12.27
2023-01-19T22:31:40.783Z,10.98
2023-01-19T22:34:43.291Z,11.70
2023-01-19T22:37:45.438Z,11.88
2023-01-19T22:40:47.933Z,12.68
2023-01-19T22:43:53.524Z,10.93
2023-01-19T22:46:56.314Z,10.95
2023-01-19T22:49:58.479Z,10.63
2023-01-19T22:53:00.966Z,11.23
2023-01-19T22:56:14.776Z,10.52
2023-01-19T22:59:17.204Z,10.30
2023-01-19T23:02:20.914Z,10.77
2023-01-19T23:05:23.630Z,10.55
2023-01-19T23:08:25.835Z,11.05
2023-01-19T23:11:35.604Z,11.63
2023-01-19T23:14:38.144Z,10.30
2023-01-19T23:17:43.395Z,11.82
2023-01-19T23:20:45.509Z,11.23
2023-01-19T23:23:48.212Z,10.88
2023-01-19T23:26:50.920Z,11.85
2023-01-19T23:29:53.474Z,11.43
2023-01-19T23:32:55.691Z,11.98
2023-01-19T23:35:58.134Z,12.27
2023-01-19T23:39:04.156Z,11.20
2023-01-19T23:42:08.202Z,12.10
2023-01-19T23:45:10.788Z,11.38
2023-01-19T23:48:13.393Z,12.35
2023-01-19T23:51:21.751Z,12.82
2023-01-19T23:54:24.319Z,12.20
2023-01-19T23:57:26.818Z,12.13
